Wednesday, October 22, 2014
12:21 UTC
  |  Log In   |  Register Free
Airport Search:

Enid Woodring Regional Airport
(KWDG)

FAA data valid effective September 18, 2014 - November 13, 2014 (unless otherwise noted).

 
 
 
 
 
 
 
 
 
 
 
 
 
 

Current Aviation Weather for Enid Woodring Regional Airport (KWDG)

The most recent METAR observation for KWDG was updated at: 1121
METAR Summary (Translated METAR)
KWDG
221055Z AUTO 16004KT 2SM BR 12/12 A3008 RMK AO2
KEND
221155Z 17007KT 6SM BR FEW065 14/14 A3010 RMK AO2A SLP188 53016
(6.6 nm SW from KWDG)
KBKN
221155Z AUTO 11004KT 5SM BR FEW060 14/13 A3010 RMK AO2
(30.5 nm NE from KWDG)
TAF Summary (Translated TAF)
KEND
(6.6 nm SW from KWDG)
2210/2316 18006KT 9000 BR SCT065 QNH3004INS BECMG 2215/2216 18009KT 9999 NSW SCT065 QNH3005INS BECMG 2217/2218 18012G20KT 9999 SCT065 QNH3004INS BECMG 2223/2224 18006KT 9999 BKN100 QNH3005INS BECMG 2305/2306 18006KT 9000 -SHRA BKN025 OVC090 QNH3009INS BECMG 2310/2311 19006KT 6000 BR SCT007 BKN015 QNH3008INS TX27/2221Z TN12/2212Z
  Airport Weather Conditions for KWDG

 Current Weather at WDG
54° F
Fog/Mist
South winds at 5.8 mph
WDG NOAA Radar

Pressure: 30.08 in
Humidity: 100%
Wind: South at 5.8 MPH (5 KT)
Dew Point: 53.6°F
Visibility: 3.00 mi


Airport Weather Forecast for KWDG

Translated METAR and TAF for KWDG
Translated METAR for KWDG (1216 UTC 22 October 2014)
found at http://aviationweather.gov/adds/metars/
 
METAR text: KWDG 221150Z 16005KT 3SM BR SKC 12/12 A3008
Conditions at: KWDG (ENID/WOODRING , OK, US) observed 1150 UTC 22 October 2014
Temperature: 12.0°C (54°F)
Dewpoint: 12.0°C (54°F) [RH = 100%]
Pressure (altimeter): 30.08 inches Hg (1018.7 mb)
Winds: from the SSE (160 degrees) at 6 MPH (5 knots; 2.6 m/s)
Visibility: 3 miles (5 km)
Ceiling: at least 12,000 feet AGL
Clouds: clear skies
Weather: BR  (mist)
Translated TAF for KWDG

There is no translated TAF available for this airport

Find All Airport Services Find A Hotel Find A Rental Car Find A Golf Course Find A Restaurant $100 Hamburger



FBO's on the Field
FBO Company Facility Photos Services Transportation Aviation Fuel Prices: Prices include tax
Catering Weather Repair Courtesy Rental Type 100LL JetA JetA+ MOGAS 8087
 
Enid Woodring Regional Airport

This FBO has not yet been rated
FS: Phillips 66
Last Updated: Oct-10
Login to update fuel prices
SS:
Contact Enid Woodring Regional AirportMore FBO Information
 
Add another FBO Facility Photos Catering Weather Repair Courtesy Rental Type 100LL JetA JetA+ MOGAS 8087
Services Transportation Aviation Fuel Prices: Prices include tax


model-print
model-print
model-print
model-print